createdAt,value
2022-10-26T00:04:53.840Z,0.2
2022-10-26T00:09:54.349Z,0.2
2022-10-26T00:14:53.840Z,0.2
2022-10-26T00:24:54.407Z,0.2
2022-10-26T00:29:54.418Z,0.1
2022-10-26T00:34:55.692Z,0.2
2022-10-26T00:39:54.176Z,0.2
2022-10-26T00:44:54.165Z,0.2
2022-10-26T00:49:53.838Z,0.2
2022-10-26T00:54:53.897Z,0.3
2022-10-26T00:59:53.917Z,0.1
2022-10-26T01:04:53.849Z,0.2
2022-10-26T01:10:06.690Z,0.2
2022-10-26T01:14:53.840Z,0.2
2022-10-26T01:19:53.855Z,0.2
2022-10-26T01:24:53.858Z,0.1
2022-10-26T01:29:53.838Z,0.2
2022-10-26T01:34:53.831Z,0.2
2022-10-26T01:39:53.870Z,0.2
2022-10-26T01:44:53.898Z,0.2
2022-10-26T01:49:53.843Z,0.2
2022-10-26T01:54:53.852Z,0.2
2022-10-26T01:59:53.863Z,0.2
2022-10-26T02:04:53.863Z,0.2
2022-10-26T02:10:23.238Z,0.2
2022-10-26T02:14:53.893Z,0.2
2022-10-26T02:19:53.815Z,0.2
2022-10-26T02:24:53.881Z,0.3
2022-10-26T02:29:53.870Z,0.2
2022-10-26T02:34:53.835Z,0.2
2022-10-26T02:39:53.837Z,0.2
2022-10-26T02:44:53.833Z,0.2
2022-10-26T02:49:53.851Z,0.2
2022-10-26T02:54:53.885Z,0.2
2022-10-26T02:59:53.902Z,0.2
2022-10-26T03:04:53.909Z,0.2
2022-10-26T03:10:01.397Z,0.2
2022-10-26T03:14:53.882Z,0.1
2022-10-26T03:19:53.867Z,0.2
2022-10-26T03:24:53.913Z,0.2
2022-10-26T03:29:54.031Z,0.2
2022-10-26T03:34:53.993Z,0.2
2022-10-26T03:39:53.922Z,0.3
2022-10-26T03:44:53.964Z,0.2
2022-10-26T03:49:54.022Z,0.2
2022-10-26T03:54:53.878Z,0.2
2022-10-26T03:59:53.844Z,0.2
2022-10-26T04:04:53.867Z,0.1
2022-10-26T04:10:12.358Z,0.2
2022-10-26T04:14:53.946Z,0.2
2022-10-26T04:19:53.900Z,0.2
2022-10-26T04:24:53.841Z,0.1
2022-10-26T04:29:53.885Z,0.2
2022-10-26T04:34:54.987Z,0.2
2022-10-26T04:39:53.936Z,0.2
2022-10-26T04:54:54.109Z,0.1
2022-10-26T04:59:53.873Z,0.2
2022-10-26T05:04:53.862Z,0.2
2022-10-26T05:09:53.986Z,0.2
2022-10-26T05:14:53.901Z,0.2
2022-10-26T05:19:53.931Z,0.1
2022-10-26T05:24:53.920Z,0.2
2022-10-26T05:29:53.940Z,0.2
2022-10-26T05:34:53.886Z,0.2
2022-10-26T05:39:53.892Z,0.2
2022-10-26T05:44:53.982Z,0.2
2022-10-26T05:49:54.268Z,0.2
2022-10-26T05:54:54.058Z,0.2
2022-10-26T05:59:53.928Z,0.2
2022-10-26T06:04:53.965Z,0.3
2022-10-26T06:09:53.986Z,0.2
2022-10-26T06:14:53.992Z,0.5
2022-10-26T06:19:53.940Z,0.5
2022-10-26T06:24:53.953Z,0.8
2022-10-26T06:29:53.911Z,0.6
2022-10-26T06:34:53.906Z,0.11
2022-10-26T06:39:56.953Z,0.19
2022-10-26T06:44:53.991Z,0.26
2022-10-26T06:49:54.343Z,0.26
2022-10-26T06:54:54.082Z,0.12
2022-10-26T06:59:54.035Z,0.13
2022-10-26T07:04:53.977Z,0.25
2022-10-26T07:09:53.950Z,0.14
2022-10-26T07:14:54.033Z,0.11
2022-10-26T07:19:54.074Z,0.9
2022-10-26T07:24:55.267Z,0.8
2022-10-26T07:29:53.930Z,0.8
2022-10-26T07:34:53.953Z,0.6
2022-10-26T07:39:54.072Z,0.6
2022-10-26T07:44:53.995Z,0.8
2022-10-26T07:49:54.403Z,0.6
2022-10-26T07:54:53.953Z,0.6
2022-10-26T07:59:53.925Z,0.6
2022-10-26T08:04:53.967Z,0.9
2022-10-26T08:09:53.952Z,0.12
2022-10-26T08:24:53.923Z,0.16
2022-10-26T08:29:53.882Z,0.18
2022-10-26T08:34:53.902Z,0.22
2022-10-26T08:39:58.400Z,0.56
2022-10-26T08:44:53.957Z,0.66
2022-10-26T08:49:53.879Z,0.51
2022-10-26T08:54:53.869Z,0.7
2022-10-26T08:59:54.001Z,0.58
2022-10-26T09:04:54.044Z,0.4
2022-10-26T09:09:53.935Z,0.36
2022-10-26T09:14:53.946Z,0.27
2022-10-26T09:20:03.881Z,0.25
2022-10-26T09:24:53.905Z,0.28
2022-10-26T09:29:53.926Z,0.25
2022-10-26T09:34:53.971Z,0.17
2022-10-26T09:39:53.982Z,0.15
2022-10-26T09:44:53.931Z,0.16
2022-10-26T09:49:54.188Z,0.25
2022-10-26T09:54:53.935Z,0.37
2022-10-26T09:59:54.004Z,0.28
2022-10-26T10:04:53.944Z,0.26
2022-10-26T10:09:53.957Z,0.38
2022-10-26T10:14:53.904Z,0.62
2022-10-26T10:20:00.036Z,1.5
2022-10-26T10:24:53.934Z,0.79
2022-10-26T10:29:53.974Z,0.85
2022-10-26T10:34:53.932Z,0.58
2022-10-26T10:39:53.962Z,0.46
2022-10-26T10:44:53.946Z,0.38
2022-10-26T10:49:53.956Z,0.42
2022-10-26T10:54:54.001Z,0.26
2022-10-26T10:59:53.901Z,0.26
2022-10-26T11:04:53.922Z,0.47
2022-10-26T11:09:54.957Z,0.34
2022-10-26T11:14:54.070Z,0.25
2022-10-26T11:19:56.700Z,0.16
2022-10-26T11:24:53.946Z,0.14
2022-10-26T11:29:53.981Z,0.13
2022-10-26T11:34:53.999Z,0.15
2022-10-26T11:39:54.090Z,0.15
2022-10-26T11:44:53.937Z,0.17
2022-10-26T11:49:53.963Z,0.18
2022-10-26T11:54:54.086Z,0.23
2022-10-26T11:59:53.988Z,0.29
2022-10-26T12:04:54.112Z,0.35
2022-10-26T12:09:53.958Z,0.39
2022-10-26T12:14:53.909Z,0.46
2022-10-26T12:19:56.808Z,0.43
2022-10-26T12:24:53.953Z,0.31
2022-10-26T12:29:53.981Z,0.23
2022-10-26T12:34:54.039Z,0.12
2022-10-26T12:39:53.990Z,0.1
2022-10-26T12:44:54.035Z,0.17
2022-10-26T12:49:53.970Z,0.36
2022-10-26T12:54:53.996Z,0.4
2022-10-26T12:59:53.980Z,0.31
2022-10-26T13:04:54.027Z,0.19
2022-10-26T13:09:53.936Z,0.25
2022-10-26T13:14:53.976Z,0.24
2022-10-26T13:20:01.618Z,0.2
2022-10-26T13:24:53.986Z,0.21
2022-10-26T13:29:53.999Z,0.23
2022-10-26T13:34:53.950Z,0.26
2022-10-26T13:39:53.992Z,0.25
2022-10-26T13:44:54.004Z,0.23
2022-10-26T13:49:53.995Z,0.31
2022-10-26T13:54:53.963Z,0.34
2022-10-26T13:59:54.028Z,0.24
2022-10-26T14:04:54.042Z,0.18
2022-10-26T14:09:54.010Z,0.15
2022-10-26T14:14:53.971Z,0.16
2022-10-26T14:19:59.969Z,0.16
2022-10-26T14:30:20.832Z,0.15
2022-10-26T14:34:53.985Z,0.15
2022-10-26T14:39:54.011Z,0.15
2022-10-26T14:44:54.127Z,0.14
2022-10-26T14:49:54.032Z,0.9
2022-10-26T14:54:53.984Z,0.9
2022-10-26T14:59:53.981Z,0.8
2022-10-26T15:04:54.004Z,0.6
2022-10-26T15:09:53.978Z,0.8
2022-10-26T15:14:54.122Z,0.8
2022-10-26T15:20:01.223Z,0.6
2022-10-26T15:24:54.090Z,0.8
2022-10-26T15:29:53.967Z,0.6
2022-10-26T15:34:54.023Z,0.5
2022-10-26T15:39:54.020Z,0.4
2022-10-26T15:44:54.080Z,0.3
2022-10-26T15:49:53.967Z,0.3
2022-10-26T15:54:54.079Z,0.3
2022-10-26T15:59:54.001Z,0.3
2022-10-26T16:04:54.055Z,0.2
2022-10-26T16:09:54.018Z,0.2
2022-10-26T16:15:04.924Z,0.2
2022-10-26T16:20:03.274Z,0.2
2022-10-26T16:24:54.026Z,0.1
2022-10-26T16:29:54.071Z,0.2
2022-10-26T16:34:54.062Z,0.2
2022-10-26T16:39:54.017Z,0.2
2022-10-26T16:44:54.025Z,0.1
2022-10-26T16:49:53.985Z,0.2
2022-10-26T16:54:53.980Z,0.2
2022-10-26T16:59:53.959Z,0.2
2022-10-26T17:04:54.030Z,0.1
2022-10-26T17:09:54.113Z,0.2
2022-10-26T17:14:54.029Z,0.2
2022-10-26T17:20:02.094Z,0.1
2022-10-26T17:24:54.009Z,0.2
2022-10-26T17:29:54.134Z,0.2
2022-10-26T17:34:54.144Z,0.2
2022-10-26T17:39:54.071Z,0.1
2022-10-26T17:44:54.017Z,0.2
2022-10-26T17:49:54.125Z,0.1
2022-10-26T17:54:54.018Z,0.2
2022-10-26T17:59:54.013Z,0.2
2022-10-26T18:04:54.047Z,0.2
2022-10-26T18:09:54.005Z,0.2
2022-10-26T18:14:54.069Z,0.2
2022-10-26T18:20:00.059Z,0.2
2022-10-26T18:24:54.031Z,0.2
2022-10-26T18:29:54.004Z,0.2
2022-10-26T18:34:54.018Z,0.2
2022-10-26T18:39:54.011Z,0.2
2022-10-26T18:44:54.488Z,0.2
2022-10-26T18:49:54.110Z,0.1
2022-10-26T18:54:54.068Z,0.2
2022-10-26T18:59:58.339Z,0.2
2022-10-26T19:04:54.041Z,0.2
2022-10-26T19:09:55.015Z,0.2
2022-10-26T19:14:54.092Z,0.2
2022-10-26T19:20:00.964Z,0.3
2022-10-26T19:24:54.092Z,0.2
2022-10-26T19:29:54.036Z,0.1
2022-10-26T19:34:54.091Z,0.2
2022-10-26T19:39:54.052Z,0.2
2022-10-26T19:44:54.041Z,0.2
2022-10-26T19:49:54.146Z,0.2
2022-10-26T19:54:54.057Z,0.2
2022-10-26T19:59:55.329Z,0.2
2022-10-26T20:04:54.073Z,0.2
2022-10-26T20:09:54.093Z,0.2
2022-10-26T20:14:54.045Z,0.2
2022-10-26T20:20:00.714Z,0.2
2022-10-26T20:24:54.090Z,0.3
2022-10-26T20:29:54.844Z,0.1
2022-10-26T20:34:54.085Z,0.2
2022-10-26T20:39:54.184Z,0.2
2022-10-26T20:44:54.102Z,0.1
2022-10-26T20:49:54.061Z,0.2
2022-10-26T20:54:54.224Z,0.2
2022-10-26T20:59:54.034Z,0.2
2022-10-26T21:04:54.176Z,0.2
2022-10-26T21:09:54.088Z,0.2
2022-10-26T21:14:54.062Z,0.2
2022-10-26T21:20:00.639Z,0.2
2022-10-26T21:24:54.149Z,0.2
2022-10-26T21:29:54.146Z,0.2
2022-10-26T21:34:54.074Z,0.2
2022-10-26T21:39:54.059Z,0.1
2022-10-26T21:44:54.137Z,0.1
2022-10-26T21:49:54.131Z,0.2
2022-10-26T21:54:54.120Z,0.2
2022-10-26T21:59:54.165Z,0.2
2022-10-26T22:04:54.082Z,0.2
2022-10-26T22:10:10.174Z,0.2
2022-10-26T22:14:54.108Z,0.3
2022-10-26T22:20:02.281Z,0.2
2022-10-26T22:24:56.203Z,0.1
2022-10-26T22:29:54.095Z,0.2
2022-10-26T22:35:10.704Z,0.1
2022-10-26T22:39:54.125Z,0.2
2022-10-26T22:44:54.120Z,0.2
2022-10-26T22:49:54.100Z,0.2
2022-10-26T22:54:54.108Z,0.2
2022-10-26T22:59:54.132Z,0.2
2022-10-26T23:04:54.107Z,0.2
2022-10-26T23:09:54.108Z,0.2
2022-10-26T23:14:54.153Z,0.2
2022-10-26T23:19:57.859Z,0.2
2022-10-26T23:24:54.115Z,0.3
2022-10-26T23:29:54.231Z,0.2
2022-10-26T23:34:54.242Z,0.2
2022-10-26T23:39:54.206Z,0.2
2022-10-26T23:44:54.124Z,0.1
2022-10-26T23:49:54.149Z,0.1
2022-10-26T23:54:54.198Z,0.2
2022-10-26T23:59:54.060Z,0.3
